createdAt,value
2018-06-14T00:00:37.936Z,9.00
2018-06-14T00:03:05.510Z,6.00
2018-06-14T00:05:33.095Z,12.00
2018-06-14T00:08:01.796Z,9.00
2018-06-14T00:10:29.374Z,9.60
2018-06-14T00:12:57.008Z,7.00
2018-06-14T00:15:24.608Z,8.80
2018-06-14T00:17:52.467Z,8.60
2018-06-14T00:20:20.047Z,9.40
2018-06-14T00:22:47.638Z,8.60
2018-06-14T00:25:15.222Z,7.80
2018-06-14T00:27:44.337Z,9.80
2018-06-14T00:30:11.889Z,7.00
2018-06-14T00:32:39.451Z,6.60
2018-06-14T00:35:07.046Z,9.20
2018-06-14T00:37:34.892Z,8.20
2018-06-14T00:40:02.480Z,10.00
2018-06-14T00:42:30.068Z,9.60
2018-06-14T00:44:57.634Z,9.00
2018-06-14T00:47:26.087Z,9.00
2018-06-14T00:49:53.652Z,9.60
2018-06-14T00:52:21.210Z,9.00
2018-06-14T00:54:48.774Z,9.20
2018-06-14T00:57:17.367Z,10.00
2018-06-14T00:59:44.950Z,9.20
2018-06-14T01:02:13.169Z,9.00
2018-06-14T01:04:40.749Z,10.40
2018-06-14T01:07:09.199Z,10.00
2018-06-14T01:09:37.361Z,10.00
2018-06-14T01:12:04.964Z,9.40
2018-06-14T01:14:34.163Z,10.80
2018-06-14T01:17:02.071Z,7.00
2018-06-14T01:19:29.661Z,10.00
2018-06-14T01:21:57.214Z,11.20
2018-06-14T01:24:24.779Z,9.40
2018-06-14T01:26:53.553Z,12.00
2018-06-14T01:29:21.118Z,9.00
2018-06-14T01:31:48.692Z,9.40
2018-06-14T01:34:16.883Z,10.40
2018-06-14T01:36:44.727Z,9.00
2018-06-14T01:39:12.318Z,9.60
2018-06-14T01:41:39.900Z,6.00
2018-06-14T01:44:07.462Z,9.00
2018-06-14T01:46:35.716Z,10.00
2018-06-14T01:49:03.324Z,10.00
2018-06-14T01:51:30.946Z,9.20
2018-06-14T01:53:58.530Z,10.00
2018-06-14T01:56:26.502Z,10.60
2018-06-14T01:58:54.078Z,9.20
2018-06-14T02:01:21.678Z,10.00
2018-06-14T02:03:49.410Z,9.60
2018-06-14T02:06:17.304Z,9.60
2018-06-14T02:08:44.878Z,9.00
2018-06-14T02:11:13.405Z,10.00
2018-06-14T02:13:41.247Z,9.80
2018-06-14T02:16:10.130Z,11.60
2018-06-14T02:18:41.549Z,7.80
2018-06-14T02:21:10.036Z,8.60
2018-06-14T02:23:37.957Z,9.60
2018-06-14T02:26:05.656Z,9.60
2018-06-14T02:28:33.240Z,9.60
2018-06-14T02:31:03.822Z,6.60
2018-06-14T02:33:31.687Z,8.60
2018-06-14T02:35:59.335Z,9.40
2018-06-14T02:38:26.913Z,10.00
2018-06-14T02:40:55.791Z,9.00
2018-06-14T02:43:23.666Z,10.00
2018-06-14T02:45:51.627Z,9.20
2018-06-14T02:48:19.187Z,12.80
2018-06-14T02:50:47.050Z,9.00
2018-06-14T02:53:14.719Z,10.00
2018-06-14T02:55:42.302Z,11.60
2018-06-14T02:58:17.743Z,8.20
2018-06-14T03:00:45.638Z,10.40
2018-06-14T03:03:13.219Z,7.40
2018-06-14T03:05:41.158Z,10.00
2018-06-14T03:08:08.745Z,13.80
2018-06-14T03:10:36.595Z,9.00
2018-06-14T03:13:05.526Z,9.20
2018-06-14T03:15:33.867Z,9.80
2018-06-14T03:18:01.803Z,12.20
2018-06-14T03:20:32.424Z,12.40
2018-06-14T03:23:00.113Z,11.20
2018-06-14T03:25:27.974Z,10.00
2018-06-14T03:27:55.553Z,10.00
2018-06-14T03:30:23.202Z,11.20
2018-06-14T03:32:51.706Z,13.00
2018-06-14T03:35:20.084Z,10.00
2018-06-14T03:37:47.686Z,10.00
2018-06-14T03:40:15.299Z,11.60
2018-06-14T03:42:44.594Z,6.80
2018-06-14T03:45:17.047Z,10.40
2018-06-14T03:47:44.627Z,11.60
2018-06-14T03:50:12.199Z,9.00
2018-06-14T03:52:39.755Z,9.00
2018-06-14T03:55:07.620Z,7.80
2018-06-14T03:57:35.187Z,10.00
2018-06-14T04:00:02.794Z,9.40
2018-06-14T04:02:30.399Z,9.20
2018-06-14T04:04:59.305Z,10.80
2018-06-14T04:07:27.588Z,12.00
2018-06-14T04:09:57.108Z,7.80
2018-06-14T04:12:24.714Z,9.40
2018-06-14T04:14:52.551Z,12.40
2018-06-14T04:17:20.146Z,6.60
2018-06-14T04:19:47.701Z,10.00
2018-06-14T04:22:15.265Z,11.20
2018-06-14T04:24:43.274Z,10.00
2018-06-14T04:27:11.133Z,12.20
2018-06-14T04:29:38.706Z,10.00
2018-06-14T04:32:06.463Z,9.20
2018-06-14T04:34:34.331Z,12.60
2018-06-14T04:37:01.919Z,10.80
2018-06-14T04:39:29.926Z,9.40
2018-06-14T04:41:57.973Z,10.40
2018-06-14T04:44:25.568Z,13.00
2018-06-14T04:46:53.318Z,10.00
2018-06-14T04:49:21.165Z,14.60
2018-06-14T04:51:48.718Z,14.60
2018-06-14T04:54:16.385Z,12.20
2018-06-14T04:56:44.232Z,12.00
2018-06-14T04:59:12.103Z,12.40
2018-06-14T05:01:40.414Z,12.60
2018-06-14T05:04:08.249Z,7.00
2018-06-14T05:06:35.823Z,8.80
2018-06-14T05:09:04.151Z,12.40
2018-06-14T05:11:32.027Z,10.80
2018-06-14T05:14:00.267Z,12.00
2018-06-14T05:16:28.605Z,11.60
2018-06-14T05:18:56.503Z,10.80
2018-06-14T05:21:24.166Z,12.40
2018-06-14T05:23:51.770Z,15.00
2018-06-14T05:26:19.646Z,13.80
2018-06-14T05:28:48.258Z,12.60
2018-06-14T05:31:15.834Z,10.80
2018-06-14T05:33:43.786Z,11.20
2018-06-14T05:36:11.370Z,11.60
2018-06-14T05:38:39.567Z,15.20
2018-06-14T05:41:07.406Z,12.80
2018-06-14T05:43:36.608Z,9.40
2018-06-14T05:46:04.966Z,11.60
2018-06-14T05:48:33.517Z,9.00
2018-06-14T05:51:01.082Z,12.00
2018-06-14T05:53:28.640Z,13.00
2018-06-14T05:55:56.519Z,11.60
2018-06-14T05:58:24.086Z,10.40
2018-06-14T06:00:51.687Z,7.40
2018-06-14T06:03:19.581Z,12.80
2018-06-14T06:05:47.198Z,10.00
2018-06-14T06:08:14.791Z,12.00
2018-06-14T06:10:42.621Z,12.60
2018-06-14T06:13:10.211Z,10.80
2018-06-14T06:15:37.794Z,12.00
2018-06-14T06:18:05.690Z,12.20
2018-06-14T06:20:33.281Z,12.60
2018-06-14T06:23:00.850Z,11.20
2018-06-14T06:25:29.334Z,12.20
2018-06-14T06:27:57.061Z,12.00
2018-06-14T06:30:24.652Z,11.20
2018-06-14T06:32:52.504Z,12.20
2018-06-14T06:35:20.307Z,10.00
2018-06-14T06:37:47.898Z,12.00
2018-06-14T06:40:16.441Z,12.00
2018-06-14T06:42:44.034Z,9.00
2018-06-14T06:45:11.621Z,10.00
2018-06-14T06:47:39.471Z,9.20
2018-06-14T06:50:07.767Z,9.20
2018-06-14T06:52:35.346Z,10.60
2018-06-14T06:55:03.181Z,10.40
2018-06-14T06:57:30.758Z,11.60
2018-06-14T06:59:58.326Z,9.80
2018-06-14T07:02:26.154Z,9.60
2018-06-14T07:04:53.721Z,11.60
2018-06-14T07:07:21.274Z,9.80
2018-06-14T07:09:49.452Z,13.00
2018-06-14T07:12:17.178Z,14.20
2018-06-14T07:14:44.766Z,12.20
2018-06-14T07:17:12.614Z,10.00
2018-06-14T07:19:41.170Z,11.80
2018-06-14T07:22:08.774Z,10.40
2018-06-14T07:24:36.635Z,13.00
2018-06-14T07:27:04.208Z,11.80
2018-06-14T07:29:31.822Z,9.60
2018-06-14T07:31:59.728Z,13.00
2018-06-14T07:34:27.314Z,8.60
2018-06-14T07:36:56.001Z,13.00
2018-06-14T07:39:25.245Z,9.80
2018-06-14T07:44:27.623Z,11.20
2018-06-14T07:46:55.201Z,8.60
2018-06-14T07:49:22.754Z,9.40
2018-06-14T07:51:51.441Z,10.80
2018-06-14T07:54:19.121Z,7.80
2018-06-14T07:56:46.966Z,11.20
2018-06-14T07:59:14.534Z,8.60
2018-06-14T08:01:42.134Z,9.00
2018-06-14T08:04:09.975Z,11.40
2018-06-14T08:06:38.494Z,9.80
2018-06-14T08:09:06.215Z,8.00
2018-06-14T08:11:34.330Z,7.40
2018-06-14T08:14:03.249Z,12.80
2018-06-14T08:16:30.852Z,10.80
2018-06-14T08:18:59.414Z,12.20
2018-06-14T08:21:26.986Z,8.40
2018-06-14T08:23:54.581Z,10.00
2018-06-14T08:26:25.393Z,9.00
2018-06-14T08:28:53.006Z,7.40
2018-06-14T08:31:22.311Z,8.20
2018-06-14T08:33:51.310Z,8.40
2018-06-14T08:36:18.882Z,9.80
2018-06-14T08:38:46.662Z,9.40
2018-06-14T08:41:14.681Z,7.00
2018-06-14T08:43:43.329Z,9.80
2018-06-14T08:46:10.891Z,7.00
2018-06-14T08:48:38.750Z,7.80
2018-06-14T08:51:06.311Z,10.20
2018-06-14T08:53:33.855Z,7.40
2018-06-14T08:56:02.147Z,11.00
2018-06-14T08:58:29.763Z,5.00
2018-06-14T09:00:57.343Z,10.60
2018-06-14T09:03:26.162Z,11.80
2018-06-14T09:05:53.856Z,8.80
2018-06-14T09:08:21.679Z,7.60
2018-06-14T09:10:49.542Z,10.00
2018-06-14T09:13:17.941Z,8.00
2018-06-14T09:15:45.551Z,7.80
2018-06-14T09:18:13.392Z,8.00
2018-06-14T09:20:42.326Z,9.60
2018-06-14T09:23:09.906Z,5.80
2018-06-14T09:25:38.422Z,8.80
2018-06-14T09:28:06.030Z,10.00
2018-06-14T09:30:33.642Z,10.00
2018-06-14T09:33:01.633Z,7.20
2018-06-14T09:35:29.194Z,9.60
2018-06-14T09:37:56.762Z,6.20
2018-06-14T09:40:24.623Z,9.20
2018-06-14T09:42:52.262Z,9.80
2018-06-14T09:45:19.865Z,7.00
2018-06-14T09:47:48.438Z,7.40
2018-06-14T09:50:16.666Z,8.00
2018-06-14T09:52:44.252Z,10.00
2018-06-14T09:55:12.186Z,9.60
2018-06-14T09:57:39.766Z,11.00
2018-06-14T10:00:07.336Z,13.20
2018-06-14T10:02:36.606Z,7.80
2018-06-14T10:05:04.210Z,10.00
2018-06-14T10:07:31.786Z,10.60
2018-06-14T10:09:59.719Z,9.20
2018-06-14T10:12:28.227Z,8.60
2018-06-14T10:14:55.820Z,9.80
2018-06-14T10:17:23.713Z,10.60
2018-06-14T10:19:51.524Z,12.20
2018-06-14T10:22:19.655Z,8.00
2018-06-14T10:24:49.608Z,11.20
2018-06-14T10:27:18.210Z,10.20
2018-06-14T10:29:48.898Z,9.00
2018-06-14T10:32:17.666Z,11.40
2018-06-14T10:34:45.249Z,11.00
2018-06-14T10:37:12.893Z,11.40
2018-06-14T10:39:42.451Z,10.60
2018-06-14T10:42:10.060Z,13.80
2018-06-14T10:44:38.475Z,12.60
2018-06-14T10:47:07.435Z,8.60
2018-06-14T10:49:35.018Z,12.00
2018-06-14T10:52:03.466Z,11.80
2018-06-14T10:54:33.219Z,9.40
2018-06-14T10:57:01.650Z,12.40
2018-06-14T10:59:29.214Z,11.40
2018-06-14T11:01:57.130Z,9.40
2018-06-14T11:04:24.743Z,12.00
2018-06-14T11:06:53.230Z,17.80
2018-06-14T11:09:23.094Z,11.60
2018-06-14T11:11:51.246Z,12.00
2018-06-14T11:14:19.947Z,11.80
2018-06-14T11:16:48.626Z,14.20
2018-06-14T11:19:18.310Z,11.20
2018-06-14T11:21:47.291Z,12.00
2018-06-14T11:24:17.960Z,14.80
2018-06-14T11:26:49.088Z,11.80
2018-06-14T11:29:16.681Z,13.80
2018-06-14T11:31:47.202Z,16.00
2018-06-14T11:34:17.786Z,13.20
2018-06-14T11:36:45.368Z,15.80
2018-06-14T11:39:13.660Z,14.60
2018-06-14T11:41:41.857Z,15.00
2018-06-14T11:44:11.218Z,13.40
2018-06-14T11:46:39.906Z,19.20
2018-06-14T11:49:07.550Z,19.00
2018-06-14T11:51:36.070Z,17.20
2018-06-14T11:54:03.934Z,16.40
2018-06-14T11:56:32.348Z,19.00
2018-06-14T11:58:59.938Z,17.20
2018-06-14T12:01:30.300Z,17.40
2018-06-14T12:04:01.523Z,16.80
2018-06-14T12:06:33.384Z,17.80
2018-06-14T12:09:01.267Z,16.60
2018-06-14T12:11:29.917Z,15.60
2018-06-14T12:13:57.510Z,18.20
2018-06-14T12:16:25.362Z,16.20
2018-06-14T12:18:53.015Z,17.00
2018-06-14T12:21:21.220Z,14.60
2018-06-14T12:23:49.070Z,15.40
2018-06-14T12:26:16.681Z,15.60
2018-06-14T12:28:44.266Z,14.80
2018-06-14T12:31:12.159Z,17.80
2018-06-14T12:33:39.751Z,17.00
2018-06-14T12:36:07.651Z,13.00
2018-06-14T12:38:35.514Z,15.20
2018-06-14T12:41:03.135Z,15.40
2018-06-14T12:43:30.698Z,15.40
2018-06-14T12:45:58.611Z,16.40
2018-06-14T12:48:26.810Z,14.80
2018-06-14T12:50:54.390Z,17.00
2018-06-14T12:53:21.958Z,14.80
2018-06-14T12:55:49.595Z,12.80
2018-06-14T12:58:17.532Z,14.60
2018-06-14T13:00:47.020Z,16.20
2018-06-14T13:03:14.601Z,12.00
2018-06-14T13:05:43.802Z,12.20
2018-06-14T13:08:14.387Z,16.20
2018-06-14T13:10:42.991Z,12.00
2018-06-14T13:13:12.254Z,16.40
2018-06-14T13:15:40.476Z,12.40
2018-06-14T13:18:09.235Z,12.40
2018-06-14T13:20:38.720Z,13.20
2018-06-14T13:23:06.362Z,14.00
2018-06-14T13:25:34.572Z,13.80
2018-06-14T13:28:02.897Z,12.00
2018-06-14T13:30:30.478Z,14.40
2018-06-14T13:33:00.877Z,11.80
2018-06-14T13:35:29.271Z,13.20
2018-06-14T13:37:58.272Z,11.80
2018-06-14T13:40:26.546Z,14.20
2018-06-14T13:42:55.342Z,12.80
2018-06-14T13:45:22.927Z,12.00
2018-06-14T13:47:50.526Z,14.20
2018-06-14T13:50:19.305Z,13.80
2018-06-14T13:52:46.931Z,13.00
2018-06-14T13:55:14.501Z,10.20
2018-06-14T13:57:42.445Z,13.00
2018-06-14T14:00:10.836Z,10.60
2018-06-14T14:02:38.466Z,12.20
2018-06-14T14:05:06.358Z,10.80
2018-06-14T14:07:35.108Z,10.20
2018-06-14T14:10:02.719Z,11.60
2018-06-14T14:12:31.276Z,12.00
2018-06-14T14:14:58.860Z,13.00
2018-06-14T14:17:27.328Z,11.60
2018-06-14T14:19:55.180Z,9.40
2018-06-14T14:22:22.802Z,12.20
2018-06-14T14:24:51.325Z,12.00
2018-06-14T14:27:19.253Z,9.00
2018-06-14T14:29:47.400Z,9.00
2018-06-14T14:32:14.958Z,9.80
2018-06-14T14:34:43.415Z,9.20
2018-06-14T14:37:12.704Z,12.00
2018-06-14T14:39:41.897Z,8.60
2018-06-14T14:42:12.724Z,9.00
2018-06-14T14:44:41.522Z,11.20
2018-06-14T14:47:09.239Z,15.20
2018-06-14T14:49:37.382Z,9.60
2018-06-14T14:52:05.878Z,12.80
2018-06-14T14:54:36.438Z,13.00
2018-06-14T14:57:07.199Z,12.00
2018-06-14T14:59:35.391Z,12.80
2018-06-14T15:02:04.454Z,12.60
2018-06-14T15:04:32.615Z,15.60
2018-06-14T15:07:04.640Z,14.40
2018-06-14T15:14:58.894Z,11.00
2018-06-14T15:17:30.148Z,11.80
2018-06-14T15:25:17.857Z,11.00
2018-06-14T15:27:48.664Z,13.20
2018-06-14T15:30:16.869Z,12.40
2018-06-14T15:32:51.898Z,13.40
2018-06-14T15:35:20.590Z,11.20
2018-06-14T15:37:49.298Z,14.20
2018-06-14T15:40:18.298Z,12.40
2018-06-14T15:42:51.290Z,12.20
2018-06-14T15:45:18.862Z,10.00
2018-06-14T15:47:46.571Z,15.60
2018-06-14T15:50:14.472Z,12.40
2018-06-14T15:52:42.826Z,11.60
2018-06-14T15:55:10.670Z,12.00
2018-06-14T15:57:38.519Z,11.80
2018-06-14T16:00:06.730Z,12.60
2018-06-14T16:02:35.467Z,10.20
2018-06-14T16:05:03.348Z,14.20
2018-06-14T16:07:30.958Z,11.20
2018-06-14T16:09:59.550Z,12.60
2018-06-14T16:12:29.569Z,13.60
2018-06-14T16:14:57.287Z,13.40
2018-06-14T16:17:25.371Z,15.00
2018-06-14T16:19:56.020Z,14.00
2018-06-14T16:22:24.255Z,17.20
2018-06-14T16:24:52.726Z,14.00
2018-06-14T16:27:21.434Z,12.80
2018-06-14T16:29:50.312Z,14.00
2018-06-14T16:32:20.394Z,13.60
2018-06-14T16:34:53.605Z,14.40
2018-06-14T16:37:21.963Z,12.40
2018-06-14T16:39:49.531Z,14.00
2018-06-14T16:42:19.140Z,11.40
2018-06-14T16:44:47.291Z,16.20
2018-06-14T16:47:14.871Z,14.40
2018-06-14T16:49:43.351Z,14.80
2018-06-14T16:52:11.212Z,14.80
2018-06-14T16:54:39.730Z,13.60
2018-06-14T16:57:07.595Z,13.20
2018-06-14T16:59:35.182Z,15.20
2018-06-14T17:02:02.785Z,15.40
2018-06-14T17:04:30.626Z,14.60
2018-06-14T17:06:58.357Z,19.00
2018-06-14T17:09:27.170Z,16.00
2018-06-14T17:11:56.328Z,12.20
2018-06-14T17:14:24.578Z,14.60
2018-06-14T17:16:52.166Z,19.20
2018-06-14T17:19:20.238Z,17.20
2018-06-14T17:21:47.822Z,17.00
2018-06-14T17:24:16.272Z,15.00
2018-06-14T17:26:44.146Z,15.40
2018-06-14T17:29:11.767Z,16.40
2018-06-14T17:31:40.325Z,16.40
2018-06-14T17:34:10.330Z,17.20
2018-06-14T17:36:38.822Z,18.40
2018-06-14T17:39:06.400Z,16.20
2018-06-14T17:41:36.288Z,18.60
2018-06-14T17:44:03.806Z,18.00
2018-06-14T17:46:31.379Z,21.80
2018-06-14T17:49:01.426Z,18.20
2018-06-14T17:51:32.345Z,18.00
2018-06-14T17:54:01.187Z,19.40
2018-06-14T17:56:31.286Z,16.00
2018-06-14T17:59:00.354Z,17.00
2018-06-14T18:01:32.462Z,14.20
2018-06-14T18:04:01.291Z,16.40
2018-06-14T18:06:29.636Z,22.00
2018-06-14T18:08:58.126Z,16.80
2018-06-14T18:11:27.320Z,16.00
2018-06-14T18:13:55.814Z,18.40
2018-06-14T18:16:24.547Z,19.60
2018-06-14T18:21:25.534Z,19.40
2018-06-14T18:23:54.560Z,18.80
2018-06-14T18:26:29.571Z,19.40
2018-06-14T18:28:58.880Z,21.60
2018-06-14T18:31:26.448Z,18.80
2018-06-14T18:33:58.190Z,20.00
2018-06-14T18:36:25.788Z,24.60
2018-06-14T18:38:54.335Z,19.80
2018-06-14T18:41:24.452Z,22.80
2018-06-14T18:43:53.300Z,17.00
2018-06-14T18:46:22.476Z,18.80
2018-06-14T18:48:50.378Z,20.40
2018-06-14T18:51:18.471Z,24.20
2018-06-14T18:53:48.349Z,20.20
2018-06-14T18:56:16.246Z,20.00
2018-06-14T18:58:45.450Z,20.00
2018-06-14T19:01:13.692Z,21.60
2018-06-14T19:03:41.576Z,17.80
2018-06-14T19:06:09.938Z,18.40
2018-06-14T19:08:38.513Z,19.20
2018-06-14T19:11:12.510Z,18.20
2018-06-14T19:13:40.201Z,15.40
2018-06-14T19:16:08.467Z,17.80
2018-06-14T19:18:36.382Z,16.80
2018-06-14T19:21:05.411Z,17.40
2018-06-14T19:23:33.791Z,18.00
2018-06-14T19:26:01.766Z,17.20
2018-06-14T19:28:29.430Z,17.60
2018-06-14T19:30:56.999Z,19.60
2018-06-14T19:33:24.854Z,17.40
2018-06-14T19:35:52.441Z,18.80
2018-06-14T19:38:21.021Z,18.40
2018-06-14T19:40:53.461Z,17.40
2018-06-14T19:43:24.487Z,15.40
2018-06-14T19:45:58.241Z,16.20
2018-06-14T19:48:26.109Z,16.80
2018-06-14T19:50:53.686Z,20.20
2018-06-14T19:53:26.111Z,19.00
2018-06-14T19:55:54.530Z,18.80
2018-06-14T19:58:25.530Z,17.60
2018-06-14T20:00:59.226Z,21.40
2018-06-14T20:03:29.415Z,16.00
2018-06-14T20:05:58.478Z,18.80
2018-06-14T20:08:26.361Z,18.80
2018-06-14T20:10:55.390Z,16.60
2018-06-14T20:13:24.014Z,19.20
2018-06-14T20:15:51.878Z,19.80
2018-06-14T20:18:19.477Z,19.00
2018-06-14T20:20:49.083Z,18.60
2018-06-14T20:23:17.792Z,18.00
2018-06-14T20:25:48.229Z,18.40
2018-06-14T20:28:16.628Z,19.20
2018-06-14T20:30:45.431Z,22.00
2018-06-14T20:33:15.211Z,17.40
2018-06-14T20:35:44.382Z,15.20
2018-06-14T20:38:13.106Z,19.80
2018-06-14T20:40:43.120Z,18.00
2018-06-14T20:43:11.698Z,17.80
2018-06-14T20:45:40.134Z,20.00
2018-06-14T20:50:44.505Z,15.00
2018-06-14T20:53:17.643Z,16.00
2018-06-14T20:55:49.928Z,21.20
2018-06-14T20:58:18.619Z,19.00
2018-06-14T21:00:46.998Z,18.20
2018-06-14T21:03:16.392Z,14.60
2018-06-14T21:05:45.385Z,14.60
2018-06-14T21:08:13.791Z,15.80
2018-06-14T21:10:42.601Z,16.00
2018-06-14T21:13:13.218Z,13.80
2018-06-14T21:15:40.802Z,15.40
2018-06-14T21:18:12.562Z,15.20
2018-06-14T21:20:43.326Z,15.00
2018-06-14T21:23:13.849Z,16.00
2018-06-14T21:25:42.034Z,18.60
2018-06-14T21:28:09.907Z,18.00
2018-06-14T21:30:38.538Z,16.00
2018-06-14T21:33:10.480Z,16.60
2018-06-14T21:35:42.270Z,18.00
2018-06-14T21:38:11.406Z,16.20
2018-06-14T21:40:40.457Z,17.60
2018-06-14T21:43:09.324Z,16.80
2018-06-14T21:48:20.447Z,18.80
2018-06-14T21:50:51.218Z,15.00
2018-06-14T21:53:22.052Z,19.60
2018-06-14T21:55:54.153Z,15.60
2018-06-14T21:58:24.275Z,16.80
2018-06-14T22:00:51.932Z,18.00
2018-06-14T22:03:24.457Z,13.80
2018-06-14T22:05:54.895Z,16.40
2018-06-14T22:08:24.279Z,21.00
2018-06-14T22:10:53.454Z,18.20
2018-06-14T22:13:21.291Z,19.00
2018-06-14T22:15:49.600Z,18.60
2018-06-14T22:18:17.169Z,21.80
2018-06-14T22:20:45.285Z,18.60
2018-06-14T22:23:13.128Z,21.40
2018-06-14T22:25:40.698Z,20.00
2018-06-14T22:28:08.569Z,23.20
2018-06-14T22:30:37.826Z,18.80
2018-06-14T22:33:06.270Z,22.80
2018-06-14T22:35:36.290Z,20.60
2018-06-14T22:38:03.866Z,22.80
2018-06-14T22:40:34.458Z,24.00
2018-06-14T22:43:02.382Z,20.00
2018-06-14T22:45:31.270Z,21.60
2018-06-14T22:47:59.601Z,24.20
2018-06-14T22:50:27.198Z,23.40
2018-06-14T22:52:56.406Z,24.60
2018-06-14T22:55:25.770Z,27.40
2018-06-14T22:57:54.493Z,20.40
2018-06-14T23:00:22.238Z,23.20
2018-06-14T23:02:52.085Z,22.00
2018-06-14T23:05:19.686Z,25.80
2018-06-14T23:07:47.290Z,20.60
2018-06-14T23:10:18.865Z,25.00
2018-06-14T23:12:49.675Z,24.60
2018-06-14T23:15:17.939Z,24.40
2018-06-14T23:17:46.446Z,22.20
2018-06-14T23:20:14.766Z,24.80
2018-06-14T23:22:43.716Z,24.20
2018-06-14T23:25:11.525Z,23.20
2018-06-14T23:27:40.643Z,25.00
2018-06-14T23:30:08.838Z,27.40
2018-06-14T23:32:36.670Z,22.20
2018-06-14T23:35:04.248Z,18.40
2018-06-14T23:37:31.852Z,21.80
2018-06-14T23:39:59.414Z,28.00
2018-06-14T23:42:28.127Z,25.00
2018-06-14T23:44:57.124Z,25.40
2018-06-14T23:47:24.794Z,21.40
2018-06-14T23:49:54.486Z,21.40
2018-06-14T23:52:22.313Z,27.40
2018-06-14T23:54:50.038Z,25.40
2018-06-14T23:57:18.050Z,26.20
2018-06-14T23:59:45.650Z,26.20
